メインページ
METAR-TAF:

METAR-TAF

空港 :

ハト国際空港

キュラソー島, オランダ領アンティル

緯度: 12-12N, 経度: 068-58W, 海抜: 9m

現時点の気象観測

当レポートは35分前の06:00(UTC)に作成
東/南東の風 8kt
気温 27°C
湿度 79%
気圧 1012 hPa
高度2000ftの雲はほとんどない

METAR: TNCC 210600Z 12008KT FEW020 27/23 Q1012 NOSIG

時間: 02:35 (06:35 UTC)

予報

当レポートは3時間20分前の03:15(UTC)に作成
予報は21日の 06時(UTC)から 22日の 06時(UTC)まで有効
の風 12kt
視程10km以上
高度1800ftの雲は散在している
21日の 06時(UTC)から 21日の 11時(UTC)まで一時的に
高度1500ftの千切れ雲あり
確率 30% :
21日の 16時(UTC)から 21日の 21時(UTC)まで一時的に
の風 13kt、最大24ktの突風を伴う

TAF: TNCC 210315Z 2106/2206 10012KT 9999 SCT018 TEMPO 2106/2111 BKN015 PROB30 TEMPO 2116/2121 09013G24KT

4,000以上の空港の気象観測と天気予報(METAR報とTAF報)

利用可能な観測所は地図上に黄色い丸と赤い丸で示す。

丸の上にカーソルを重ねると観測所名を参照できる。

次にクリックすると気象観測と天気予報を参照できる。

マップの切り替え:黒色「×」印の緑ボタンをクリックして拡大、「-」印の緑ボタンをクリックして縮小、緑色の三角印をクリックして隣りの地図に切り替え


METAR-TAF: